createdAt,value
2022-11-29T00:00:47.275Z,10.23
2022-11-29T00:01:49.370Z,9.10
2022-11-29T00:02:54.570Z,10.02
2022-11-29T00:03:57.097Z,9.73
2022-11-29T00:04:58.785Z,11.18
2022-11-29T00:06:08.469Z,9.95
2022-11-29T00:07:10.169Z,10.67
2022-11-29T00:08:12.783Z,9.02
2022-11-29T00:09:14.570Z,11.23
2022-11-29T00:10:16.873Z,8.93
2022-11-29T00:11:41.161Z,11.15
2022-11-29T00:12:43.317Z,10.57
2022-11-29T00:13:45.339Z,8.73
2022-11-29T00:14:47.259Z,9.55
2022-11-29T00:15:49.133Z,10.15
2022-11-29T00:16:57.262Z,9.95
2022-11-29T00:17:59.063Z,9.67
2022-11-29T00:19:01.283Z,10.55
2022-11-29T00:20:03.288Z,11.30
2022-11-29T00:21:06.983Z,14.23
2022-11-29T00:22:09.157Z,12.43
2022-11-29T00:23:11.473Z,13.57
2022-11-29T00:24:13.820Z,13.02
2022-11-29T00:25:15.704Z,11.57
2022-11-29T00:26:17.536Z,10.75
2022-11-29T00:27:20.003Z,8.47
2022-11-29T00:28:22.303Z,9.70
2022-11-29T00:29:24.029Z,11.30
2022-11-29T00:30:25.914Z,10.23
2022-11-29T00:31:31.358Z,12.38
2022-11-29T00:32:33.075Z,11.30
2022-11-29T00:33:34.801Z,15.43
2022-11-29T00:34:37.635Z,12.55
2022-11-29T00:35:39.422Z,12.53
2022-11-29T00:36:41.592Z,11.07
2022-11-29T00:37:43.350Z,11.38
2022-11-29T00:38:45.466Z,13.60
2022-11-29T00:39:47.408Z,11.18
2022-11-29T00:40:52.873Z,11.93
2022-11-29T00:41:55.206Z,9.57
2022-11-29T00:42:57.377Z,11.88
2022-11-29T00:43:59.261Z,14.77
2022-11-29T00:45:01.050Z,11.98
2022-11-29T00:46:03.976Z,12.93
2022-11-29T00:47:05.748Z,9.20
2022-11-29T00:48:07.609Z,9.90
2022-11-29T00:49:09.384Z,11.60
2022-11-29T00:50:11.455Z,10.15
2022-11-29T00:51:13.308Z,10.02
2022-11-29T00:52:15.123Z,9.35
2022-11-29T00:53:17.597Z,10.20
2022-11-29T00:54:19.405Z,11.67
2022-11-29T00:55:21.609Z,10.30
2022-11-29T00:56:23.608Z,10.55
2022-11-29T00:57:25.472Z,8.32
2022-11-29T00:58:28.286Z,9.55
2022-11-29T00:59:30.651Z,10.32
2022-11-29T01:00:32.868Z,10.07
2022-11-29T01:01:34.706Z,9.15
2022-11-29T01:02:37.896Z,7.75
2022-11-29T01:03:39.985Z,7.25
2022-11-29T01:04:42.053Z,13.17
2022-11-29T01:05:44.676Z,11.20
2022-11-29T01:06:46.449Z,9.05
2022-11-29T01:07:48.829Z,9.43
2022-11-29T01:08:52.255Z,10.23
2022-11-29T01:09:54.046Z,7.18
2022-11-29T01:11:11.755Z,8.68
2022-11-29T01:12:13.465Z,10.80
2022-11-29T01:13:15.198Z,10.70
2022-11-29T01:14:17.029Z,7.67
2022-11-29T01:15:18.810Z,8.10
2022-11-29T01:16:20.872Z,9.38
2022-11-29T01:17:22.698Z,12.13
2022-11-29T01:18:25.246Z,8.55
2022-11-29T01:19:28.035Z,9.73
2022-11-29T01:20:31.363Z,9.93
2022-11-29T01:21:34.206Z,11.07
2022-11-29T01:22:38.883Z,10.85
2022-11-29T01:23:42.845Z,7.55
2022-11-29T01:24:45.183Z,10.27
2022-11-29T01:25:55.181Z,8.23
2022-11-29T01:26:57.032Z,11.57
2022-11-29T01:27:58.762Z,8.68
2022-11-29T01:29:00.635Z,9.15
2022-11-29T01:30:02.578Z,10.57
2022-11-29T01:31:13.270Z,10.07
2022-11-29T01:32:15.092Z,7.85
2022-11-29T01:33:16.964Z,12.25
2022-11-29T01:34:19.472Z,7.83
2022-11-29T01:35:21.283Z,7.40
2022-11-29T01:36:24.223Z,6.95
2022-11-29T01:37:29.146Z,9.35
2022-11-29T01:38:31.187Z,8.32
2022-11-29T01:39:33.042Z,8.25
2022-11-29T01:40:35.705Z,8.90
2022-11-29T01:41:38.335Z,10.05
2022-11-29T01:42:40.048Z,7.93
2022-11-29T01:44:00.602Z,7.90
2022-11-29T01:45:15.592Z,7.70
2022-11-29T01:46:17.426Z,8.43
2022-11-29T01:47:19.670Z,7.45
2022-11-29T01:48:28.751Z,8.43
2022-11-29T01:49:38.452Z,7.57
2022-11-29T01:50:42.039Z,9.40
2022-11-29T01:51:48.545Z,8.87
2022-11-29T01:52:50.760Z,12.00
2022-11-29T01:53:53.657Z,9.38
2022-11-29T01:55:01.760Z,9.68
2022-11-29T01:56:05.608Z,7.78
2022-11-29T01:57:09.701Z,7.85
2022-11-29T01:58:12.360Z,8.95
2022-11-29T01:59:18.518Z,7.47
2022-11-29T02:00:20.578Z,8.87
2022-11-29T02:01:23.298Z,8.65
2022-11-29T02:02:44.654Z,6.95
2022-11-29T02:03:47.711Z,6.32
2022-11-29T02:04:49.986Z,7.63
2022-11-29T02:05:53.696Z,7.72
2022-11-29T02:06:55.533Z,7.85
2022-11-29T02:07:59.854Z,8.95
2022-11-29T02:09:01.950Z,6.87
2022-11-29T02:10:05.278Z,7.25
2022-11-29T02:11:07.043Z,7.78
2022-11-29T02:12:32.314Z,5.80
2022-11-29T02:13:53.578Z,7.97
2022-11-29T02:14:55.319Z,6.35
2022-11-29T02:16:28.461Z,6.30
2022-11-29T02:18:08.036Z,6.90
2022-11-29T02:19:46.611Z,5.60
2022-11-29T02:21:10.048Z,6.80
2022-11-29T02:22:19.469Z,6.65
2022-11-29T02:23:41.616Z,7.80
2022-11-29T02:24:52.839Z,6.18
2022-11-29T02:26:19.592Z,7.97
2022-11-29T02:27:52.296Z,6.25
2022-11-29T02:29:15.637Z,5.55
2022-11-29T02:30:24.665Z,5.23
2022-11-29T02:32:04.063Z,7.22
2022-11-29T02:33:22.204Z,6.53
2022-11-29T02:34:59.433Z,7.22
2022-11-29T02:36:04.024Z,7.38
2022-11-29T02:37:22.585Z,6.15
2022-11-29T02:38:57.958Z,8.05
2022-11-29T02:40:30.141Z,7.13
2022-11-29T02:41:56.294Z,8.13
2022-11-29T02:43:32.142Z,7.22
2022-11-29T02:45:03.631Z,6.90
2022-11-29T02:46:27.707Z,8.02
2022-11-29T02:47:51.458Z,10.95
2022-11-29T02:49:11.982Z,10.18
2022-11-29T02:50:41.108Z,7.65
2022-11-29T02:52:01.574Z,8.10
2022-11-29T02:53:11.845Z,7.33
2022-11-29T02:54:30.347Z,8.48
2022-11-29T02:56:10.876Z,8.50
2022-11-29T02:57:36.678Z,8.48
2022-11-29T02:58:49.098Z,8.38
2022-11-29T03:00:13.485Z,9.70
2022-11-29T03:01:26.734Z,7.63
2022-11-29T03:02:49.444Z,9.40
2022-11-29T03:04:15.322Z,8.40
2022-11-29T03:05:35.242Z,7.95
2022-11-29T03:06:50.223Z,5.72
2022-11-29T03:08:08.055Z,7.68
2022-11-29T03:09:22.011Z,6.85
2022-11-29T03:10:43.306Z,8.57
2022-11-29T03:12:03.259Z,7.68
2022-11-29T03:13:18.006Z,8.75
2022-11-29T03:14:24.236Z,9.65
2022-11-29T03:15:44.793Z,7.13
2022-11-29T03:17:13.797Z,9.73
2022-11-29T03:19:05.905Z,5.13
2022-11-29T03:20:24.119Z,7.35
2022-11-29T03:21:48.627Z,8.43
2022-11-29T03:23:15.096Z,8.73
2022-11-29T03:24:26.797Z,8.40
2022-11-29T03:25:31.553Z,9.70
2022-11-29T03:26:41.996Z,7.47
2022-11-29T03:28:19.768Z,7.95
2022-11-29T03:29:24.215Z,8.75
2022-11-29T03:30:26.200Z,10.90
2022-11-29T03:31:35.897Z,8.88
2022-11-29T03:32:56.652Z,8.85
2022-11-29T03:34:01.386Z,6.68
2022-11-29T03:35:12.680Z,8.32
2022-11-29T03:36:34.836Z,7.40
2022-11-29T03:37:48.354Z,6.73
2022-11-29T03:38:52.706Z,7.63
2022-11-29T03:40:10.209Z,8.00
2022-11-29T03:41:43.578Z,5.80
2022-11-29T03:42:53.384Z,6.40
2022-11-29T03:44:22.554Z,8.77
2022-11-29T03:45:32.121Z,6.47
2022-11-29T03:46:52.465Z,7.43
2022-11-29T03:48:01.714Z,6.50
2022-11-29T03:49:09.726Z,6.88
2022-11-29T03:50:16.336Z,7.95
2022-11-29T03:51:28.963Z,6.60
2022-11-29T03:52:52.022Z,6.90
2022-11-29T03:54:17.781Z,7.03
2022-11-29T03:55:32.888Z,9.05
2022-11-29T03:56:40.179Z,8.55
2022-11-29T03:58:06.321Z,6.32
2022-11-29T03:59:43.484Z,6.60
2022-11-29T04:01:12.557Z,5.70
2022-11-29T04:02:51.999Z,8.90
2022-11-29T04:04:19.332Z,7.43
2022-11-29T04:05:52.103Z,7.35
2022-11-29T04:07:05.566Z,7.97
2022-11-29T04:08:25.630Z,9.48
2022-11-29T04:10:04.302Z,7.78
2022-11-29T04:11:37.221Z,7.55
2022-11-29T04:13:00.883Z,6.80
2022-11-29T04:14:20.764Z,7.73
2022-11-29T04:15:46.600Z,9.00
2022-11-29T04:16:54.363Z,9.50
2022-11-29T04:18:52.997Z,9.13
2022-11-29T04:20:18.648Z,6.93
2022-11-29T04:21:44.839Z,6.80
2022-11-29T04:23:08.030Z,5.05
2022-11-29T04:24:51.595Z,9.23
2022-11-29T04:26:08.064Z,7.97
2022-11-29T04:27:41.505Z,9.23
2022-11-29T04:29:04.843Z,7.10
2022-11-29T04:30:14.563Z,7.88
2022-11-29T04:31:45.784Z,6.70
2022-11-29T04:33:07.000Z,6.00
2022-11-29T04:34:35.004Z,7.40
2022-11-29T04:35:51.857Z,7.10
2022-11-29T04:37:28.568Z,6.35
2022-11-29T04:39:00.960Z,7.68
2022-11-29T04:40:23.724Z,6.22
2022-11-29T04:41:41.193Z,5.47
2022-11-29T04:43:20.000Z,8.27
2022-11-29T04:44:37.689Z,5.43
2022-11-29T04:45:54.304Z,7.85
2022-11-29T04:47:14.460Z,7.00
2022-11-29T04:48:35.182Z,6.43
2022-11-29T04:49:56.838Z,7.60
2022-11-29T04:51:32.158Z,5.88
2022-11-29T04:52:39.567Z,6.30
2022-11-29T04:53:50.160Z,4.50
2022-11-29T04:54:57.661Z,6.53
2022-11-29T04:56:22.916Z,4.90
2022-11-29T04:57:32.672Z,8.27
2022-11-29T04:58:48.174Z,6.25
2022-11-29T04:59:53.582Z,5.75
2022-11-29T05:01:29.444Z,8.55
2022-11-29T05:02:58.467Z,8.43
2022-11-29T05:04:21.387Z,9.43
2022-11-29T05:05:49.326Z,7.03
2022-11-29T05:07:17.604Z,8.65
2022-11-29T05:08:50.411Z,6.80
2022-11-29T05:10:03.085Z,7.47
2022-11-29T05:11:29.581Z,8.27
2022-11-29T05:12:43.439Z,4.40
2022-11-29T05:14:15.090Z,6.53
2022-11-29T05:15:45.932Z,6.85
2022-11-29T05:17:24.115Z,9.30
2022-11-29T05:19:03.364Z,6.90
2022-11-29T05:20:43.168Z,7.32
2022-11-29T05:21:48.028Z,7.43
2022-11-29T05:23:23.827Z,6.18
2022-11-29T05:24:53.824Z,6.13
2022-11-29T05:26:19.689Z,6.22
2022-11-29T05:27:47.489Z,8.32
2022-11-29T05:29:03.264Z,6.03
2022-11-29T05:30:31.804Z,7.18
2022-11-29T05:31:59.682Z,5.40
2022-11-29T05:33:31.655Z,10.20
2022-11-29T05:34:48.384Z,7.35
2022-11-29T05:36:08.816Z,10.23
2022-11-29T05:37:48.593Z,10.63
2022-11-29T05:39:15.658Z,6.40
2022-11-29T05:40:46.112Z,6.30
2022-11-29T05:42:19.403Z,7.35
2022-11-29T05:43:45.966Z,7.25
2022-11-29T05:44:56.683Z,9.65
2022-11-29T05:46:20.008Z,10.90
2022-11-29T05:47:31.522Z,7.07
2022-11-29T05:48:54.990Z,5.82
2022-11-29T05:50:21.493Z,7.32
2022-11-29T05:51:40.090Z,4.68
2022-11-29T05:53:03.271Z,5.65
2022-11-29T05:54:34.247Z,6.65
2022-11-29T05:55:51.512Z,7.72
2022-11-29T05:57:15.141Z,4.83
2022-11-29T05:58:30.486Z,5.47
2022-11-29T05:59:36.635Z,5.72
2022-11-29T06:00:53.816Z,5.93
2022-11-29T06:02:11.210Z,6.63
2022-11-29T06:03:36.951Z,5.53
2022-11-29T06:04:57.359Z,6.15
2022-11-29T06:06:08.178Z,6.22
2022-11-29T06:07:44.665Z,5.68
2022-11-29T06:09:00.560Z,9.07
2022-11-29T06:10:23.550Z,6.65
2022-11-29T06:11:32.984Z,7.60
2022-11-29T06:12:38.458Z,6.03
2022-11-29T06:14:01.013Z,8.73
2022-11-29T06:15:21.277Z,7.63
2022-11-29T06:16:33.182Z,6.18
2022-11-29T06:18:02.559Z,6.07
2022-11-29T06:19:22.531Z,7.00
2022-11-29T06:20:42.963Z,7.00
2022-11-29T06:22:25.183Z,6.65
2022-11-29T06:23:44.173Z,5.68
2022-11-29T06:25:47.118Z,4.88
2022-11-29T06:27:12.650Z,5.95
2022-11-29T06:28:27.685Z,5.25
2022-11-29T06:30:00.909Z,5.63
2022-11-29T06:31:21.161Z,5.55
2022-11-29T06:32:47.721Z,5.70
2022-11-29T06:34:30.647Z,6.72
2022-11-29T06:35:48.427Z,6.85
2022-11-29T06:37:05.987Z,5.53
2022-11-29T06:38:18.274Z,5.50
2022-11-29T06:39:20.654Z,6.05
2022-11-29T06:40:22.931Z,7.93
2022-11-29T06:41:25.725Z,4.82
2022-11-29T06:42:28.609Z,6.00
2022-11-29T06:43:31.509Z,7.57
2022-11-29T06:44:33.590Z,7.18
2022-11-29T06:45:35.661Z,6.63
2022-11-29T06:46:58.602Z,6.80
2022-11-29T06:48:07.625Z,8.40
2022-11-29T06:49:26.869Z,7.10
2022-11-29T06:51:04.272Z,6.03
2022-11-29T06:52:11.941Z,9.13
2022-11-29T06:53:31.059Z,6.13
2022-11-29T06:55:26.943Z,5.70
2022-11-29T06:56:49.389Z,6.78
2022-11-29T06:58:05.178Z,5.10
2022-11-29T06:59:21.402Z,5.63
2022-11-29T07:00:29.139Z,4.95
2022-11-29T07:01:44.314Z,5.40
2022-11-29T07:03:06.899Z,6.45
2022-11-29T07:04:45.685Z,6.68
2022-11-29T07:05:48.444Z,5.60
2022-11-29T07:06:51.895Z,6.90
2022-11-29T07:07:57.219Z,7.50
2022-11-29T07:09:26.463Z,6.72
2022-11-29T07:10:32.646Z,4.80
2022-11-29T07:11:34.708Z,5.50
2022-11-29T07:12:36.670Z,4.68
2022-11-29T07:13:39.146Z,5.03
2022-11-29T07:14:41.207Z,6.70
2022-11-29T07:15:50.994Z,5.50
2022-11-29T07:17:07.154Z,5.72
2022-11-29T07:18:32.126Z,4.95
2022-11-29T07:19:50.856Z,5.03
2022-11-29T07:20:55.589Z,6.18
2022-11-29T07:22:05.502Z,6.38
2022-11-29T07:23:12.953Z,7.60
2022-11-29T07:24:36.140Z,5.95
2022-11-29T07:25:53.959Z,5.05
2022-11-29T07:27:04.694Z,5.32
2022-11-29T07:28:06.649Z,5.27
2022-11-29T07:29:32.244Z,4.82
2022-11-29T07:30:56.702Z,4.40
2022-11-29T07:32:35.666Z,5.25
2022-11-29T07:33:58.878Z,7.63
2022-11-29T07:35:24.712Z,6.53
2022-11-29T07:36:41.612Z,5.95
2022-11-29T07:37:57.522Z,4.53
2022-11-29T07:39:24.154Z,4.85
2022-11-29T07:40:59.031Z,4.90
2022-11-29T07:42:14.760Z,5.47
2022-11-29T07:43:36.365Z,5.25
2022-11-29T07:45:02.532Z,4.47
2022-11-29T07:46:04.326Z,5.70
2022-11-29T07:47:07.976Z,5.38
2022-11-29T07:48:12.415Z,4.57
2022-11-29T07:49:14.280Z,4.65
2022-11-29T07:50:16.598Z,4.68
2022-11-29T07:51:19.961Z,4.70
2022-11-29T07:52:21.825Z,4.40
2022-11-29T07:53:24.362Z,5.85
2022-11-29T07:54:26.449Z,4.20
2022-11-29T07:55:29.728Z,3.85
2022-11-29T07:56:31.553Z,6.22
2022-11-29T07:57:36.875Z,4.45
2022-11-29T07:58:40.645Z,4.38
2022-11-29T07:59:42.614Z,4.30
2022-11-29T08:00:45.417Z,4.22
2022-11-29T08:01:47.353Z,3.40
2022-11-29T08:02:50.899Z,4.50
2022-11-29T08:03:52.698Z,5.03
2022-11-29T08:04:54.509Z,5.47
2022-11-29T08:05:56.416Z,4.30
2022-11-29T08:06:59.748Z,4.78
2022-11-29T08:08:01.704Z,3.30
2022-11-29T08:09:05.424Z,3.40
2022-11-29T08:10:15.525Z,4.18
2022-11-29T08:11:17.285Z,4.68
2022-11-29T08:12:19.194Z,4.10
2022-11-29T08:13:21.603Z,3.95
2022-11-29T08:14:23.470Z,4.35
2022-11-29T08:15:25.901Z,4.53
2022-11-29T08:16:28.041Z,5.23
2022-11-29T08:17:29.896Z,5.82
2022-11-29T08:18:31.672Z,2.97
2022-11-29T08:19:33.493Z,4.25
2022-11-29T08:20:35.893Z,3.97
2022-11-29T08:21:37.688Z,4.22
2022-11-29T08:22:39.813Z,3.80
2022-11-29T08:23:42.957Z,3.78
2022-11-29T08:24:45.999Z,3.38
2022-11-29T08:25:48.468Z,3.47
2022-11-29T08:26:50.535Z,4.15
2022-11-29T08:27:52.414Z,4.18
2022-11-29T08:28:56.669Z,5.68
2022-11-29T08:29:58.618Z,3.58
2022-11-29T08:31:07.191Z,3.80
2022-11-29T08:32:09.557Z,2.93
2022-11-29T08:33:11.735Z,4.20
2022-11-29T08:34:13.449Z,3.17
2022-11-29T08:35:16.229Z,4.22
2022-11-29T08:36:19.855Z,4.03
2022-11-29T08:37:22.023Z,3.33
2022-11-29T08:38:23.970Z,3.70
2022-11-29T08:39:30.447Z,3.85
2022-11-29T08:40:33.610Z,3.30
2022-11-29T08:41:35.647Z,3.95
2022-11-29T08:42:37.573Z,4.55
2022-11-29T08:43:39.602Z,2.78
2022-11-29T08:44:41.435Z,4.90
2022-11-29T08:45:51.258Z,4.55
2022-11-29T08:47:11.572Z,2.53
2022-11-29T08:48:14.177Z,4.38
2022-11-29T08:49:16.213Z,4.32
2022-11-29T08:50:18.359Z,4.35
2022-11-29T08:51:20.116Z,3.70
2022-11-29T08:52:40.414Z,3.72
2022-11-29T08:53:42.370Z,4.90
2022-11-29T08:54:45.151Z,3.30
2022-11-29T08:55:47.271Z,4.65
2022-11-29T08:57:23.644Z,3.90
2022-11-29T08:58:13.188Z,3.70
2022-11-29T08:59:15.107Z,4.65
2022-11-29T09:00:21.163Z,4.38
2022-11-29T09:01:23.084Z,4.35
2022-11-29T09:02:25.080Z,6.15
2022-11-29T09:03:45.655Z,3.67
2022-11-29T09:04:47.690Z,2.20
2022-11-29T09:05:49.972Z,3.45
2022-11-29T09:06:51.829Z,4.60
2022-11-29T09:07:53.895Z,4.28
2022-11-29T09:08:57.645Z,4.90
2022-11-29T09:10:05.279Z,4.45
2022-11-29T09:11:15.504Z,3.07
2022-11-29T09:12:17.341Z,4.18
2022-11-29T09:13:19.528Z,2.50
2022-11-29T09:14:22.853Z,4.43
2022-11-29T09:15:25.276Z,3.90
2022-11-29T09:16:30.618Z,4.28
2022-11-29T09:17:32.820Z,3.85
2022-11-29T09:18:37.481Z,3.42
2022-11-29T09:19:39.260Z,4.22
2022-11-29T09:20:46.532Z,4.78
2022-11-29T09:21:48.369Z,4.25
2022-11-29T09:22:50.089Z,4.18
2022-11-29T09:23:58.596Z,4.10
2022-11-29T09:25:00.364Z,4.05
2022-11-29T09:26:02.852Z,4.07
2022-11-29T09:27:06.809Z,4.60
2022-11-29T09:28:08.659Z,4.55
2022-11-29T09:29:12.360Z,4.93
2022-11-29T09:30:18.003Z,4.63
2022-11-29T09:31:22.648Z,4.00
2022-11-29T09:32:24.564Z,4.33
2022-11-29T09:33:26.295Z,3.53
2022-11-29T09:34:28.120Z,4.10
2022-11-29T09:35:30.418Z,5.55
2022-11-29T09:36:32.353Z,3.88
2022-11-29T09:37:35.146Z,6.50
2022-11-29T09:38:37.470Z,6.95
2022-11-29T09:39:40.677Z,4.05
2022-11-29T09:40:55.439Z,3.37
2022-11-29T09:42:14.633Z,5.00
2022-11-29T09:43:38.260Z,5.03
2022-11-29T09:44:59.369Z,4.10
2022-11-29T09:46:22.031Z,4.68
2022-11-29T09:47:40.055Z,4.10
2022-11-29T09:49:03.596Z,5.25
2022-11-29T09:50:34.127Z,6.15
2022-11-29T09:51:44.043Z,3.27
2022-11-29T09:53:20.291Z,4.63
2022-11-29T09:54:36.005Z,3.88
2022-11-29T09:56:03.382Z,4.25
2022-11-29T09:57:10.848Z,4.40
2022-11-29T09:58:20.960Z,3.47
2022-11-29T09:59:30.591Z,4.50
2022-11-29T10:00:38.145Z,5.65
2022-11-29T10:01:45.164Z,4.30
2022-11-29T10:03:16.739Z,4.70
2022-11-29T10:04:22.765Z,3.42
2022-11-29T10:05:37.983Z,4.82
2022-11-29T10:06:58.583Z,3.75
2022-11-29T10:08:27.368Z,4.05
2022-11-29T10:09:47.756Z,6.95
2022-11-29T10:10:52.977Z,6.23
2022-11-29T10:12:06.952Z,3.75
2022-11-29T10:13:26.205Z,4.28
2022-11-29T10:14:38.892Z,4.47
2022-11-29T10:15:44.460Z,4.07
2022-11-29T10:17:04.510Z,3.03
2022-11-29T10:18:09.713Z,3.38
2022-11-29T10:19:26.521Z,3.47
2022-11-29T10:20:39.701Z,4.20
2022-11-29T10:21:47.445Z,4.07
2022-11-29T10:23:02.083Z,4.38
2022-11-29T10:24:25.696Z,4.53
2022-11-29T10:25:34.593Z,6.40
2022-11-29T10:26:38.627Z,6.72
2022-11-29T10:27:40.767Z,3.93
2022-11-29T10:28:45.038Z,4.88
2022-11-29T10:29:50.397Z,3.28
2022-11-29T10:30:55.322Z,3.50
2022-11-29T10:31:59.356Z,2.97
2022-11-29T10:33:02.853Z,4.25
2022-11-29T10:34:17.061Z,4.15
2022-11-29T10:35:20.076Z,3.70
2022-11-29T10:36:40.055Z,4.27
2022-11-29T10:37:41.931Z,3.97
2022-11-29T10:38:46.374Z,4.70
2022-11-29T10:39:57.300Z,4.10
2022-11-29T10:41:06.432Z,3.92
2022-11-29T10:42:36.464Z,5.50
2022-11-29T10:43:38.953Z,4.68
2022-11-29T10:44:40.807Z,4.68
2022-11-29T10:45:56.103Z,4.20
2022-11-29T10:47:00.906Z,6.45
2022-11-29T10:48:15.871Z,5.32
2022-11-29T10:49:22.088Z,3.60
2022-11-29T10:50:29.502Z,5.10
2022-11-29T10:51:33.209Z,5.65
2022-11-29T10:52:35.007Z,3.00
2022-11-29T10:53:38.232Z,3.93
2022-11-29T10:54:42.697Z,4.88
2022-11-29T10:55:53.857Z,5.22
2022-11-29T10:56:59.207Z,4.80
2022-11-29T10:58:23.410Z,3.78
2022-11-29T10:59:31.071Z,3.03
2022-11-29T11:00:47.633Z,4.35
2022-11-29T11:01:50.665Z,4.85
2022-11-29T11:02:52.656Z,5.30
2022-11-29T11:03:56.396Z,3.95
2022-11-29T11:04:59.294Z,4.05
2022-11-29T11:06:03.673Z,5.05
2022-11-29T11:07:06.435Z,5.03
2022-11-29T11:08:17.678Z,4.10
2022-11-29T11:09:24.581Z,3.65
2022-11-29T11:10:29.562Z,4.07
2022-11-29T11:11:32.896Z,5.33
2022-11-29T11:12:35.106Z,4.07
2022-11-29T11:13:41.268Z,4.20
2022-11-29T11:14:44.424Z,4.57
2022-11-29T11:15:46.642Z,4.03
2022-11-29T11:16:48.464Z,5.10
2022-11-29T11:18:01.489Z,4.15
2022-11-29T11:19:26.148Z,4.03
2022-11-29T11:20:29.792Z,3.57
2022-11-29T11:21:31.683Z,3.72
2022-11-29T11:22:34.927Z,3.20
2022-11-29T11:23:42.715Z,4.50
2022-11-29T11:24:45.444Z,5.10
2022-11-29T11:26:08.083Z,4.28
2022-11-29T11:27:10.128Z,4.78
2022-11-29T11:28:36.809Z,6.88
2022-11-29T11:29:42.253Z,4.10
2022-11-29T11:31:01.719Z,4.13
2022-11-29T11:32:04.963Z,4.07
2022-11-29T11:33:20.237Z,5.50
2022-11-29T11:34:30.606Z,4.05
2022-11-29T11:35:32.472Z,3.85
2022-11-29T11:36:34.249Z,4.05
2022-11-29T11:37:36.145Z,4.75
2022-11-29T11:38:57.612Z,5.32
2022-11-29T11:40:17.876Z,4.70
2022-11-29T11:41:53.588Z,3.85
2022-11-29T11:42:59.279Z,4.68
2022-11-29T11:44:04.471Z,4.18
2022-11-29T11:45:34.197Z,6.10
2022-11-29T11:46:52.490Z,4.80
2022-11-29T11:47:58.775Z,4.45
2022-11-29T11:49:00.598Z,4.30
2022-11-29T11:50:02.478Z,4.80
2022-11-29T11:51:04.377Z,6.10
2022-11-29T11:52:07.178Z,5.37
2022-11-29T11:53:33.973Z,5.15
2022-11-29T11:54:36.539Z,4.57
2022-11-29T11:55:42.942Z,4.13
2022-11-29T11:56:45.080Z,6.10
2022-11-29T11:58:14.342Z,6.03
2022-11-29T11:59:24.038Z,5.65
2022-11-29T12:01:03.048Z,5.28
2022-11-29T12:02:02.894Z,5.22
2022-11-29T12:03:06.884Z,4.87
2022-11-29T12:04:14.605Z,5.38
2022-11-29T12:05:19.382Z,5.30
2022-11-29T12:06:27.349Z,4.47
2022-11-29T12:08:06.339Z,4.28
2022-11-29T12:09:05.806Z,5.40
2022-11-29T12:10:17.079Z,4.45
2022-11-29T12:11:19.712Z,4.95
2022-11-29T12:12:25.223Z,5.40
2022-11-29T12:13:31.695Z,5.45
2022-11-29T12:14:46.428Z,4.90
2022-11-29T12:15:51.064Z,5.63
2022-11-29T12:17:05.154Z,5.13
2022-11-29T12:18:30.167Z,4.82
2022-11-29T12:19:39.560Z,4.88
2022-11-29T12:21:03.332Z,7.05
2022-11-29T12:22:13.322Z,5.68
2022-11-29T12:23:15.467Z,5.38
2022-11-29T12:24:48.732Z,5.70
2022-11-29T12:26:02.673Z,4.25
2022-11-29T12:27:06.223Z,4.28
2022-11-29T12:28:18.630Z,6.20
2022-11-29T12:29:23.332Z,5.85
2022-11-29T12:30:25.188Z,4.57
2022-11-29T12:31:54.957Z,5.77
2022-11-29T12:33:04.910Z,6.65
2022-11-29T12:34:42.461Z,4.93
2022-11-29T12:36:08.714Z,5.25
2022-11-29T12:37:35.538Z,6.35
2022-11-29T12:39:04.287Z,3.95
2022-11-29T12:40:28.086Z,5.68
2022-11-29T12:42:01.039Z,5.50
2022-11-29T12:43:37.684Z,5.83
2022-11-29T12:44:48.557Z,4.57
2022-11-29T12:45:59.001Z,4.85
2022-11-29T12:47:35.689Z,4.75
2022-11-29T12:48:54.962Z,6.22
2022-11-29T12:50:11.129Z,4.90
2022-11-29T12:51:29.573Z,4.40
2022-11-29T12:52:36.554Z,4.78
2022-11-29T12:54:03.947Z,5.05
2022-11-29T12:55:18.011Z,4.70
2022-11-29T12:56:27.748Z,4.80
2022-11-29T12:57:53.135Z,4.30
2022-11-29T12:59:00.806Z,6.47
2022-11-29T13:00:12.765Z,5.00
2022-11-29T13:01:31.366Z,4.85
2022-11-29T13:03:10.855Z,5.88
2022-11-29T13:04:40.254Z,4.78
2022-11-29T13:06:30.977Z,4.50
2022-11-29T13:08:05.751Z,4.97
2022-11-29T13:09:31.194Z,5.55
2022-11-29T13:10:57.433Z,5.28
2022-11-29T13:12:16.764Z,5.10
2022-11-29T13:13:34.611Z,5.80
2022-11-29T13:14:51.449Z,4.53
2022-11-29T13:16:06.892Z,4.60
2022-11-29T13:17:38.060Z,4.50
2022-11-29T13:18:57.975Z,4.45
2022-11-29T13:20:24.483Z,5.03
2022-11-29T13:21:31.734Z,5.65
2022-11-29T13:23:15.317Z,5.00
2022-11-29T13:24:43.151Z,5.18
2022-11-29T13:25:51.186Z,4.07
2022-11-29T13:26:54.360Z,5.10
2022-11-29T13:28:14.933Z,4.55
2022-11-29T13:29:18.486Z,4.57
2022-11-29T13:30:20.502Z,5.60
2022-11-29T13:31:24.911Z,4.93
2022-11-29T13:32:44.059Z,5.40
2022-11-29T13:34:08.232Z,4.32
2022-11-29T13:35:22.430Z,4.55
2022-11-29T13:36:43.350Z,5.10
2022-11-29T13:38:09.896Z,4.70
2022-11-29T13:39:34.425Z,4.60
2022-11-29T13:40:59.883Z,3.92
2022-11-29T13:42:16.643Z,5.38
2022-11-29T13:43:23.115Z,4.65
2022-11-29T13:44:48.502Z,5.05
2022-11-29T13:46:01.609Z,5.23
2022-11-29T13:47:15.703Z,4.57
2022-11-29T13:48:29.146Z,4.28
2022-11-29T13:49:49.292Z,3.92
2022-11-29T13:50:51.153Z,4.82
2022-11-29T13:52:06.349Z,3.85
2022-11-29T13:53:13.976Z,3.88
2022-11-29T13:54:34.788Z,5.22
2022-11-29T13:56:06.198Z,5.68
2022-11-29T13:57:09.649Z,4.85
2022-11-29T13:58:33.976Z,4.20
2022-11-29T13:59:44.263Z,3.67
2022-11-29T14:00:51.744Z,3.97
2022-11-29T14:01:54.524Z,6.03
2022-11-29T14:02:58.004Z,5.75
2022-11-29T14:04:16.193Z,3.97
2022-11-29T14:05:26.189Z,5.65
2022-11-29T14:06:36.964Z,4.65
2022-11-29T14:08:18.164Z,4.30
2022-11-29T14:09:25.326Z,6.10
2022-11-29T14:10:29.504Z,6.30
2022-11-29T14:11:56.861Z,4.88
2022-11-29T14:13:00.314Z,3.63
2022-11-29T14:14:09.049Z,4.53
2022-11-29T14:15:16.825Z,4.00
2022-11-29T14:16:34.525Z,4.80
2022-11-29T14:17:55.853Z,4.45
2022-11-29T14:19:12.450Z,4.30
2022-11-29T14:20:23.281Z,3.37
2022-11-29T14:21:25.018Z,4.35
2022-11-29T14:22:26.858Z,4.63
2022-11-29T14:23:43.238Z,4.57
2022-11-29T14:24:57.534Z,3.92
2022-11-29T14:26:23.719Z,4.00
2022-11-29T14:27:28.555Z,3.45
2022-11-29T14:28:35.180Z,4.75
2022-11-29T14:29:54.952Z,4.57
2022-11-29T14:30:58.614Z,5.30
2022-11-29T14:32:00.521Z,4.07
2022-11-29T14:33:26.975Z,4.47
2022-11-29T14:34:34.220Z,4.20
2022-11-29T14:35:44.612Z,3.45
2022-11-29T14:36:55.994Z,4.53
2022-11-29T14:38:06.249Z,5.78
2022-11-29T14:39:41.326Z,3.38
2022-11-29T14:40:54.314Z,4.03
2022-11-29T14:42:16.967Z,5.13
2022-11-29T14:43:35.215Z,4.75
2022-11-29T14:44:45.075Z,4.00
2022-11-29T14:45:47.158Z,3.60
2022-11-29T14:46:59.228Z,4.57
2022-11-29T14:48:01.875Z,4.15
2022-11-29T14:49:05.543Z,3.95
2022-11-29T14:50:10.616Z,3.50
2022-11-29T14:51:20.462Z,4.03
2022-11-29T14:52:26.146Z,4.55
2022-11-29T14:53:33.251Z,5.30
2022-11-29T14:54:54.254Z,4.10
2022-11-29T14:56:36.050Z,4.45
2022-11-29T14:57:50.367Z,5.70
2022-11-29T14:59:29.652Z,4.20
2022-11-29T15:00:47.093Z,3.13
2022-11-29T15:01:50.754Z,3.65
2022-11-29T15:03:19.742Z,4.45
2022-11-29T15:04:26.039Z,4.38
2022-11-29T15:05:37.307Z,4.73
2022-11-29T15:06:46.188Z,4.78
2022-11-29T15:08:15.763Z,5.47
2022-11-29T15:09:20.998Z,4.57
2022-11-29T15:10:29.667Z,4.85
2022-11-29T15:11:51.070Z,5.15
2022-11-29T15:12:54.742Z,3.72
2022-11-29T15:14:04.071Z,4.80
2022-11-29T15:15:26.153Z,4.28
2022-11-29T15:16:59.656Z,4.93
2022-11-29T15:18:06.841Z,3.47
2022-11-29T15:19:37.432Z,4.75
2022-11-29T15:20:51.387Z,4.30
2022-11-29T15:22:08.199Z,4.70
2022-11-29T15:23:15.879Z,4.55
2022-11-29T15:24:20.581Z,4.40
2022-11-29T15:25:31.792Z,5.03
2022-11-29T15:26:33.855Z,3.70
2022-11-29T15:27:40.022Z,4.82
2022-11-29T15:28:43.386Z,4.72
2022-11-29T15:29:48.459Z,4.70
2022-11-29T15:31:02.404Z,4.45
2022-11-29T15:32:11.819Z,4.53
2022-11-29T15:33:21.179Z,4.68
2022-11-29T15:34:32.895Z,3.58
2022-11-29T15:35:35.994Z,6.05
2022-11-29T15:36:44.052Z,5.20
2022-11-29T15:37:48.858Z,5.18
2022-11-29T15:38:53.330Z,5.97
2022-11-29T15:40:10.765Z,4.70
2022-11-29T15:41:35.674Z,3.25
2022-11-29T15:43:16.759Z,4.15
2022-11-29T15:44:23.542Z,3.73
2022-11-29T15:45:39.216Z,4.57
2022-11-29T15:46:40.960Z,4.30
2022-11-29T15:47:42.720Z,4.80
2022-11-29T15:48:44.460Z,3.97
2022-11-29T15:49:46.170Z,4.30
2022-11-29T15:50:59.142Z,4.38
2022-11-29T15:52:07.742Z,3.85
2022-11-29T15:53:16.748Z,4.30
2022-11-29T15:54:36.516Z,5.93
2022-11-29T15:55:38.677Z,3.88
2022-11-29T15:56:48.694Z,5.88
2022-11-29T15:57:55.190Z,4.65
2022-11-29T15:59:04.809Z,4.50
2022-11-29T16:00:09.189Z,3.70
2022-11-29T16:01:21.591Z,4.78
2022-11-29T16:02:25.200Z,4.33
2022-11-29T16:03:31.189Z,3.50
2022-11-29T16:04:33.452Z,5.18
2022-11-29T16:05:37.633Z,3.72
2022-11-29T16:06:42.502Z,5.93
2022-11-29T16:07:46.712Z,3.75